sensor_id;sensor_type;location;lat;lon;timestamp;temperature;humidity
18153;DHT22;9202;51.578;7.734;2022-07-06T00:01:53;15.80;99.90
18153;DHT22;9202;51.578;7.734;2022-07-06T00:03:57;15.80;99.90
18153;DHT22;9202;51.578;7.734;2022-07-06T00:06:00;15.70;99.90
18153;DHT22;9202;51.578;7.734;2022-07-06T00:08:05;15.70;99.90
18153;DHT22;9202;51.578;7.734;2022-07-06T00:10:09;15.60;99.90
18153;DHT22;9202;51.578;7.734;2022-07-06T00:12:12;15.70;99.90
18153;DHT22;9202;51.578;7.734;2022-07-06T00:14:16;15.60;99.90
18153;DHT22;9202;51.578;7.734;2022-07-06T00:16:20;15.50;99.90
18153;DHT22;9202;51.578;7.734;2022-07-06T00:18:23;15.50;99.90
18153;DHT22;9202;51.578;7.734;2022-07-06T00:20:28;15.50;99.90
18153;DHT22;9202;51.578;7.734;2022-07-06T00:22:31;15.40;99.90
18153;DHT22;9202;51.578;7.734;2022-07-06T00:24:35;15.40;99.90
18153;DHT22;9202;51.578;7.734;2022-07-06T00:26:38;15.40;99.90
18153;DHT22;9202;51.578;7.734;2022-07-06T00:28:42;15.40;99.90
18153;DHT22;9202;51.578;7.734;2022-07-06T00:30:46;15.40;99.90
18153;DHT22;9202;51.578;7.734;2022-07-06T00:32:49;15.20;99.90
18153;DHT22;9202;51.578;7.734;2022-07-06T00:34:53;15.10;99.90
18153;DHT22;9202;51.578;7.734;2022-07-06T00:36:58;15.20;99.90
18153;DHT22;9202;51.578;7.734;2022-07-06T00:39:02;15.10;99.90
18153;DHT22;9202;51.578;7.734;2022-07-06T00:41:06;15.00;99.90
18153;DHT22;9202;51.578;7.734;2022-07-06T00:43:09;14.90;99.90
18153;DHT22;9202;51.578;7.734;2022-07-06T00:45:14;14.90;99.90
18153;DHT22;9202;51.578;7.734;2022-07-06T00:47:18;14.90;99.90
18153;DHT22;9202;51.578;7.734;2022-07-06T00:49:22;14.80;99.90
18153;DHT22;9202;51.578;7.734;2022-07-06T00:51:43;14.60;99.90
18153;DHT22;9202;51.578;7.734;2022-07-06T00:53:48;14.60;99.90
18153;DHT22;9202;51.578;7.734;2022-07-06T00:55:52;14.60;99.90
18153;DHT22;9202;51.578;7.734;2022-07-06T00:57:56;14.50;99.90
18153;DHT22;9202;51.578;7.734;2022-07-06T01:02:15;14.50;99.90
18153;DHT22;9202;51.578;7.734;2022-07-06T01:04:19;14.50;99.90
18153;DHT22;9202;51.578;7.734;2022-07-06T01:06:23;14.60;99.90
18153;DHT22;9202;51.578;7.734;2022-07-06T01:08:26;14.50;99.90
18153;DHT22;9202;51.578;7.734;2022-07-06T01:10:31;14.60;99.90
18153;DHT22;9202;51.578;7.734;2022-07-06T01:12:35;14.60;99.90
18153;DHT22;9202;51.578;7.734;2022-07-06T01:14:39;14.60;99.90
18153;DHT22;9202;51.578;7.734;2022-07-06T01:16:43;14.50;99.90
18153;DHT22;9202;51.578;7.734;2022-07-06T01:18:47;14.50;99.90
18153;DHT22;9202;51.578;7.734;2022-07-06T01:20:51;14.50;99.90
18153;DHT22;9202;51.578;7.734;2022-07-06T01:22:55;14.50;99.90
18153;DHT22;9202;51.578;7.734;2022-07-06T01:24:59;14.50;99.90
18153;DHT22;9202;51.578;7.734;2022-07-06T01:27:04;14.60;99.90
18153;DHT22;9202;51.578;7.734;2022-07-06T01:29:08;14.60;99.90
18153;DHT22;9202;51.578;7.734;2022-07-06T01:31:15;14.60;99.90
18153;DHT22;9202;51.578;7.734;2022-07-06T01:33:20;14.70;99.90
18153;DHT22;9202;51.578;7.734;2022-07-06T01:37:39;14.70;99.90
18153;DHT22;9202;51.578;7.734;2022-07-06T01:39:43;14.60;99.90
18153;DHT22;9202;51.578;7.734;2022-07-06T01:41:47;14.60;99.90
18153;DHT22;9202;51.578;7.734;2022-07-06T01:46:06;14.60;99.90
18153;DHT22;9202;51.578;7.734;2022-07-06T01:50:26;14.60;99.90
18153;DHT22;9202;51.578;7.734;2022-07-06T01:52:30;14.60;99.90
18153;DHT22;9202;51.578;7.734;2022-07-06T01:54:34;14.50;99.90
18153;DHT22;9202;51.578;7.734;2022-07-06T01:56:37;14.40;99.90
18153;DHT22;9202;51.578;7.734;2022-07-06T01:58:41;14.40;99.90
18153;DHT22;9202;51.578;7.734;2022-07-06T02:00:45;14.30;99.90
18153;DHT22;9202;51.578;7.734;2022-07-06T02:02:49;14.20;99.90
18153;DHT22;9202;51.578;7.734;2022-07-06T02:04:52;14.10;99.90
18153;DHT22;9202;51.578;7.734;2022-07-06T02:06:57;14.10;99.90
18153;DHT22;9202;51.578;7.734;2022-07-06T02:09:01;14.10;99.90
18153;DHT22;9202;51.578;7.734;2022-07-06T02:11:05;14.00;99.90
18153;DHT22;9202;51.578;7.734;2022-07-06T02:13:09;14.00;99.90
18153;DHT22;9202;51.578;7.734;2022-07-06T02:15:12;14.00;99.90
18153;DHT22;9202;51.578;7.734;2022-07-06T02:19:34;13.90;99.90
18153;DHT22;9202;51.578;7.734;2022-07-06T02:21:38;13.90;99.90
18153;DHT22;9202;51.578;7.734;2022-07-06T02:23:41;13.90;99.90
18153;DHT22;9202;51.578;7.734;2022-07-06T02:25:45;13.80;99.90
18153;DHT22;9202;51.578;7.734;2022-07-06T02:27:48;13.90;99.90
18153;DHT22;9202;51.578;7.734;2022-07-06T02:29:53;13.90;99.90
18153;DHT22;9202;51.578;7.734;2022-07-06T02:31:56;13.90;99.90
18153;DHT22;9202;51.578;7.734;2022-07-06T02:34:00;13.80;99.90
18153;DHT22;9202;51.578;7.734;2022-07-06T02:36:04;13.80;99.90
18153;DHT22;9202;51.578;7.734;2022-07-06T02:38:07;13.90;99.90
18153;DHT22;9202;51.578;7.734;2022-07-06T02:40:12;13.90;99.90
18153;DHT22;9202;51.578;7.734;2022-07-06T02:42:16;13.80;99.90
18153;DHT22;9202;51.578;7.734;2022-07-06T02:44:20;13.80;99.90
18153;DHT22;9202;51.578;7.734;2022-07-06T02:46:23;13.70;99.90
18153;DHT22;9202;51.578;7.734;2022-07-06T02:48:27;13.70;99.90
18153;DHT22;9202;51.578;7.734;2022-07-06T02:50:31;13.70;99.90
18153;DHT22;9202;51.578;7.734;2022-07-06T02:52:35;13.60;99.90
18153;DHT22;9202;51.578;7.734;2022-07-06T02:54:40;13.60;99.90
18153;DHT22;9202;51.578;7.734;2022-07-06T02:56:44;13.70;99.90
18153;DHT22;9202;51.578;7.734;2022-07-06T02:58:49;13.70;99.90
18153;DHT22;9202;51.578;7.734;2022-07-06T03:00:53;13.70;99.90
18153;DHT22;9202;51.578;7.734;2022-07-06T03:02:57;13.60;99.90
18153;DHT22;9202;51.578;7.734;2022-07-06T03:05:01;13.70;99.90
18153;DHT22;9202;51.578;7.734;2022-07-06T03:07:05;13.60;99.90
18153;DHT22;9202;51.578;7.734;2022-07-06T03:09:09;13.60;99.90
18153;DHT22;9202;51.578;7.734;2022-07-06T03:11:13;13.60;99.90
18153;DHT22;9202;51.578;7.734;2022-07-06T03:13:17;13.60;99.90
18153;DHT22;9202;51.578;7.734;2022-07-06T03:17:43;13.50;99.90
18153;DHT22;9202;51.578;7.734;2022-07-06T03:19:48;13.60;99.90
18153;DHT22;9202;51.578;7.734;2022-07-06T03:21:52;13.40;99.90
18153;DHT22;9202;51.578;7.734;2022-07-06T03:23:55;13.30;99.90
18153;DHT22;9202;51.578;7.734;2022-07-06T03:26:00;13.20;99.90
18153;DHT22;9202;51.578;7.734;2022-07-06T03:28:04;13.30;99.90
18153;DHT22;9202;51.578;7.734;2022-07-06T03:30:09;13.20;99.90
18153;DHT22;9202;51.578;7.734;2022-07-06T03:32:15;13.20;99.90
18153;DHT22;9202;51.578;7.734;2022-07-06T03:34:19;13.20;99.90
18153;DHT22;9202;51.578;7.734;2022-07-06T03:36:23;13.20;99.90
18153;DHT22;9202;51.578;7.734;2022-07-06T03:38:27;13.20;99.90
18153;DHT22;9202;51.578;7.734;2022-07-06T03:40:31;13.20;99.90
18153;DHT22;9202;51.578;7.734;2022-07-06T03:44:55;13.20;99.90
18153;DHT22;9202;51.578;7.734;2022-07-06T03:46:59;13.30;99.90
18153;DHT22;9202;51.578;7.734;2022-07-06T03:49:03;13.30;99.90
18153;DHT22;9202;51.578;7.734;2022-07-06T03:51:07;13.30;99.90
18153;DHT22;9202;51.578;7.734;2022-07-06T03:53:10;13.20;99.90
18153;DHT22;9202;51.578;7.734;2022-07-06T03:55:15;13.20;99.90
18153;DHT22;9202;51.578;7.734;2022-07-06T03:57:20;13.10;99.90
18153;DHT22;9202;51.578;7.734;2022-07-06T04:01:41;13.00;99.90
18153;DHT22;9202;51.578;7.734;2022-07-06T04:03:47;12.90;99.90
18153;DHT22;9202;51.578;7.734;2022-07-06T04:05:50;12.90;99.90
18153;DHT22;9202;51.578;7.734;2022-07-06T04:07:54;12.90;99.90
18153;DHT22;9202;51.578;7.734;2022-07-06T04:09:59;12.80;99.90
18153;DHT22;9202;51.578;7.734;2022-07-06T04:12:05;12.70;99.90
18153;DHT22;9202;51.578;7.734;2022-07-06T04:14:08;12.70;99.90
18153;DHT22;9202;51.578;7.734;2022-07-06T04:16:12;12.70;99.90
18153;DHT22;9202;51.578;7.734;2022-07-06T04:18:16;12.70;99.90
18153;DHT22;9202;51.578;7.734;2022-07-06T04:20:23;12.70;99.90
18153;DHT22;9202;51.578;7.734;2022-07-06T04:22:27;12.80;99.90
18153;DHT22;9202;51.578;7.734;2022-07-06T04:26:51;12.80;99.90
18153;DHT22;9202;51.578;7.734;2022-07-06T04:28:54;12.80;99.90
18153;DHT22;9202;51.578;7.734;2022-07-06T04:30:58;12.80;99.90
18153;DHT22;9202;51.578;7.734;2022-07-06T04:33:03;12.90;99.90
18153;DHT22;9202;51.578;7.734;2022-07-06T04:35:09;12.90;99.90
18153;DHT22;9202;51.578;7.734;2022-07-06T04:37:13;12.90;99.90
18153;DHT22;9202;51.578;7.734;2022-07-06T04:39:16;12.90;99.90
18153;DHT22;9202;51.578;7.734;2022-07-06T04:41:20;13.00;99.90
18153;DHT22;9202;51.578;7.734;2022-07-06T04:43:25;13.00;99.90
18153;DHT22;9202;51.578;7.734;2022-07-06T04:47:47;13.00;99.90
18153;DHT22;9202;51.578;7.734;2022-07-06T04:49:50;13.00;99.90
18153;DHT22;9202;51.578;7.734;2022-07-06T04:51:54;13.00;99.90
18153;DHT22;9202;51.578;7.734;2022-07-06T04:53:58;13.10;99.90
18153;DHT22;9202;51.578;7.734;2022-07-06T04:56:02;13.10;99.90
18153;DHT22;9202;51.578;7.734;2022-07-06T04:58:06;13.20;99.90
18153;DHT22;9202;51.578;7.734;2022-07-06T05:02:26;13.30;99.90
18153;DHT22;9202;51.578;7.734;2022-07-06T05:04:29;13.40;99.90
18153;DHT22;9202;51.578;7.734;2022-07-06T05:06:33;13.30;99.90
18153;DHT22;9202;51.578;7.734;2022-07-06T05:08:37;13.30;99.90
18153;DHT22;9202;51.578;7.734;2022-07-06T05:10:41;13.40;99.90
18153;DHT22;9202;51.578;7.734;2022-07-06T05:12:45;13.40;99.90
18153;DHT22;9202;51.578;7.734;2022-07-06T05:14:49;13.40;99.90
18153;DHT22;9202;51.578;7.734;2022-07-06T05:16:54;13.50;99.90
18153;DHT22;9202;51.578;7.734;2022-07-06T05:18:59;13.40;99.90
18153;DHT22;9202;51.578;7.734;2022-07-06T05:21:04;13.40;99.90
18153;DHT22;9202;51.578;7.734;2022-07-06T05:23:08;13.50;99.90
18153;DHT22;9202;51.578;7.734;2022-07-06T05:25:13;13.60;99.90
18153;DHT22;9202;51.578;7.734;2022-07-06T05:27:17;13.60;99.90
18153;DHT22;9202;51.578;7.734;2022-07-06T05:29:22;13.60;99.90
18153;DHT22;9202;51.578;7.734;2022-07-06T05:31:26;13.70;99.90
18153;DHT22;9202;51.578;7.734;2022-07-06T05:35:45;13.70;99.90
18153;DHT22;9202;51.578;7.734;2022-07-06T05:37:51;13.70;99.90
18153;DHT22;9202;51.578;7.734;2022-07-06T05:39:54;13.80;99.90
18153;DHT22;9202;51.578;7.734;2022-07-06T05:41:58;13.70;99.90
18153;DHT22;9202;51.578;7.734;2022-07-06T05:44:02;13.70;99.90
18153;DHT22;9202;51.578;7.734;2022-07-06T05:46:05;13.70;99.90
18153;DHT22;9202;51.578;7.734;2022-07-06T05:48:10;13.80;99.90
18153;DHT22;9202;51.578;7.734;2022-07-06T05:52:58;13.90;99.90
18153;DHT22;9202;51.578;7.734;2022-07-06T05:55:02;14.00;99.90
18153;DHT22;9202;51.578;7.734;2022-07-06T05:57:06;14.10;99.90
18153;DHT22;9202;51.578;7.734;2022-07-06T05:59:10;14.00;99.90
18153;DHT22;9202;51.578;7.734;2022-07-06T06:01:13;14.00;99.90
18153;DHT22;9202;51.578;7.734;2022-07-06T06:03:19;14.10;99.90
18153;DHT22;9202;51.578;7.734;2022-07-06T06:05:24;14.20;99.90
18153;DHT22;9202;51.578;7.734;2022-07-06T06:07:29;14.20;99.90
18153;DHT22;9202;51.578;7.734;2022-07-06T06:09:33;14.30;99.90
18153;DHT22;9202;51.578;7.734;2022-07-06T06:11:36;14.40;99.90
18153;DHT22;9202;51.578;7.734;2022-07-06T06:15:56;14.70;99.90
18153;DHT22;9202;51.578;7.734;2022-07-06T06:18:00;14.80;99.90
18153;DHT22;9202;51.578;7.734;2022-07-06T06:20:06;14.90;99.90
18153;DHT22;9202;51.578;7.734;2022-07-06T06:22:10;14.90;99.90
18153;DHT22;9202;51.578;7.734;2022-07-06T06:24:14;15.00;99.90
18153;DHT22;9202;51.578;7.734;2022-07-06T06:26:17;15.10;99.90
18153;DHT22;9202;51.578;7.734;2022-07-06T06:28:21;15.10;99.90
18153;DHT22;9202;51.578;7.734;2022-07-06T06:30:25;15.10;99.90
18153;DHT22;9202;51.578;7.734;2022-07-06T06:32:29;15.30;99.90
18153;DHT22;9202;51.578;7.734;2022-07-06T06:34:33;15.30;99.90
18153;DHT22;9202;51.578;7.734;2022-07-06T06:36:36;15.30;99.90
18153;DHT22;9202;51.578;7.734;2022-07-06T06:38:40;15.40;99.90
18153;DHT22;9202;51.578;7.734;2022-07-06T06:40:44;15.40;99.90
18153;DHT22;9202;51.578;7.734;2022-07-06T06:42:48;15.50;99.90
18153;DHT22;9202;51.578;7.734;2022-07-06T06:44:52;15.50;99.90
18153;DHT22;9202;51.578;7.734;2022-07-06T06:46:56;15.60;99.90
18153;DHT22;9202;51.578;7.734;2022-07-06T06:49:00;15.60;99.90
18153;DHT22;9202;51.578;7.734;2022-07-06T06:53:22;15.60;99.90
18153;DHT22;9202;51.578;7.734;2022-07-06T06:55:27;15.60;99.90
18153;DHT22;9202;51.578;7.734;2022-07-06T06:57:30;15.70;99.90
18153;DHT22;9202;51.578;7.734;2022-07-06T06:59:34;15.80;99.90
18153;DHT22;9202;51.578;7.734;2022-07-06T07:01:37;15.80;99.90
18153;DHT22;9202;51.578;7.734;2022-07-06T07:03:41;15.90;99.90
18153;DHT22;9202;51.578;7.734;2022-07-06T07:05:45;15.90;99.90
18153;DHT22;9202;51.578;7.734;2022-07-06T07:07:48;16.10;99.90
18153;DHT22;9202;51.578;7.734;2022-07-06T07:09:52;16.10;99.90
18153;DHT22;9202;51.578;7.734;2022-07-06T07:11:55;16.10;99.90
18153;DHT22;9202;51.578;7.734;2022-07-06T07:14:00;16.20;99.90
18153;DHT22;9202;51.578;7.734;2022-07-06T07:16:05;16.20;99.90
18153;DHT22;9202;51.578;7.734;2022-07-06T07:18:09;16.40;99.90
18153;DHT22;9202;51.578;7.734;2022-07-06T07:20:14;16.40;99.90
18153;DHT22;9202;51.578;7.734;2022-07-06T07:22:18;16.40;99.90
18153;DHT22;9202;51.578;7.734;2022-07-06T07:24:21;16.40;99.90
18153;DHT22;9202;51.578;7.734;2022-07-06T07:26:25;16.50;99.90
18153;DHT22;9202;51.578;7.734;2022-07-06T07:28:29;16.50;99.90
18153;DHT22;9202;51.578;7.734;2022-07-06T07:30:32;16.60;99.90
18153;DHT22;9202;51.578;7.734;2022-07-06T07:32:36;16.60;99.90
18153;DHT22;9202;51.578;7.734;2022-07-06T07:36:56;16.60;99.90
18153;DHT22;9202;51.578;7.734;2022-07-06T07:41:16;16.60;99.90
18153;DHT22;9202;51.578;7.734;2022-07-06T07:43:20;16.70;99.90
18153;DHT22;9202;51.578;7.734;2022-07-06T07:47:48;16.80;99.90
18153;DHT22;9202;51.578;7.734;2022-07-06T07:49:52;16.90;99.90
18153;DHT22;9202;51.578;7.734;2022-07-06T07:51:55;17.00;99.90
18153;DHT22;9202;51.578;7.734;2022-07-06T07:53:59;17.00;99.90
18153;DHT22;9202;51.578;7.734;2022-07-06T07:58:18;17.10;99.90
18153;DHT22;9202;51.578;7.734;2022-07-06T08:00:22;17.10;99.90
18153;DHT22;9202;51.578;7.734;2022-07-06T08:02:29;17.20;99.90
18153;DHT22;9202;51.578;7.734;2022-07-06T08:04:32;17.20;99.90
18153;DHT22;9202;51.578;7.734;2022-07-06T08:08:52;17.30;99.90
18153;DHT22;9202;51.578;7.734;2022-07-06T08:10:56;17.30;99.90
18153;DHT22;9202;51.578;7.734;2022-07-06T08:13:01;17.20;99.90
18153;DHT22;9202;51.578;7.734;2022-07-06T08:17:22;17.20;99.90
18153;DHT22;9202;51.578;7.734;2022-07-06T08:19:26;17.20;99.90
18153;DHT22;9202;51.578;7.734;2022-07-06T08:21:30;17.20;99.90
18153;DHT22;9202;51.578;7.734;2022-07-06T08:23:33;17.30;99.90
18153;DHT22;9202;51.578;7.734;2022-07-06T08:25:37;17.30;99.90
18153;DHT22;9202;51.578;7.734;2022-07-06T08:27:41;17.30;99.90
18153;DHT22;9202;51.578;7.734;2022-07-06T08:29:44;17.30;99.90
18153;DHT22;9202;51.578;7.734;2022-07-06T08:31:48;17.50;99.90
18153;DHT22;9202;51.578;7.734;2022-07-06T08:33:53;17.40;99.90
18153;DHT22;9202;51.578;7.734;2022-07-06T08:35:58;17.40;99.90
18153;DHT22;9202;51.578;7.734;2022-07-06T08:38:02;17.50;99.90
18153;DHT22;9202;51.578;7.734;2022-07-06T08:40:08;17.60;99.90
18153;DHT22;9202;51.578;7.734;2022-07-06T08:42:12;17.60;99.90
18153;DHT22;9202;51.578;7.734;2022-07-06T08:44:18;17.60;99.90
18153;DHT22;9202;51.578;7.734;2022-07-06T08:46:22;17.40;99.90
18153;DHT22;9202;51.578;7.734;2022-07-06T08:48:27;17.30;99.90
18153;DHT22;9202;51.578;7.734;2022-07-06T08:50:34;17.20;99.90
18153;DHT22;9202;51.578;7.734;2022-07-06T08:52:38;17.10;99.90
18153;DHT22;9202;51.578;7.734;2022-07-06T08:54:51;17.00;99.90
18153;DHT22;9202;51.578;7.734;2022-07-06T08:56:59;16.90;99.90
18153;DHT22;9202;51.578;7.734;2022-07-06T08:59:15;16.90;99.90
18153;DHT22;9202;51.578;7.734;2022-07-06T09:01:44;16.90;99.90
18153;DHT22;9202;51.578;7.734;2022-07-06T09:04:09;16.90;99.90
18153;DHT22;9202;51.578;7.734;2022-07-06T09:06:22;16.80;99.90
18153;DHT22;9202;51.578;7.734;2022-07-06T09:08:32;16.90;99.90
18153;DHT22;9202;51.578;7.734;2022-07-06T09:10:41;17.00;99.90
18153;DHT22;9202;51.578;7.734;2022-07-06T09:12:49;17.10;99.90
18153;DHT22;9202;51.578;7.734;2022-07-06T09:14:57;17.10;99.90
18153;DHT22;9202;51.578;7.734;2022-07-06T09:17:05;17.20;99.90
18153;DHT22;9202;51.578;7.734;2022-07-06T09:19:12;17.20;99.90
18153;DHT22;9202;51.578;7.734;2022-07-06T09:21:25;17.20;99.90
18153;DHT22;9202;51.578;7.734;2022-07-06T09:23:30;17.20;99.90
18153;DHT22;9202;51.578;7.734;2022-07-06T09:25:35;17.20;99.90
18153;DHT22;9202;51.578;7.734;2022-07-06T09:27:40;17.30;99.90
18153;DHT22;9202;51.578;7.734;2022-07-06T09:29:45;17.40;99.90
18153;DHT22;9202;51.578;7.734;2022-07-06T09:31:57;17.50;99.90
18153;DHT22;9202;51.578;7.734;2022-07-06T09:34:04;17.60;99.90
18153;DHT22;9202;51.578;7.734;2022-07-06T09:36:10;17.70;99.90
18153;DHT22;9202;51.578;7.734;2022-07-06T09:38:14;17.70;99.90
18153;DHT22;9202;51.578;7.734;2022-07-06T09:40:19;17.80;99.90
18153;DHT22;9202;51.578;7.734;2022-07-06T09:42:27;17.80;99.90
18153;DHT22;9202;51.578;7.734;2022-07-06T09:44:33;17.80;99.90
18153;DHT22;9202;51.578;7.734;2022-07-06T09:46:41;17.70;99.90
18153;DHT22;9202;51.578;7.734;2022-07-06T09:51:03;17.70;99.90
18153;DHT22;9202;51.578;7.734;2022-07-06T09:53:09;17.70;99.90
18153;DHT22;9202;51.578;7.734;2022-07-06T09:55:16;17.80;99.90
18153;DHT22;9202;51.578;7.734;2022-07-06T09:57:21;17.80;99.90
18153;DHT22;9202;51.578;7.734;2022-07-06T09:59:27;18.00;99.90
18153;DHT22;9202;51.578;7.734;2022-07-06T10:01:32;18.10;99.90
18153;DHT22;9202;51.578;7.734;2022-07-06T10:03:37;18.30;99.90
18153;DHT22;9202;51.578;7.734;2022-07-06T10:05:43;18.30;99.90
18153;DHT22;9202;51.578;7.734;2022-07-06T10:07:50;18.30;99.90
18153;DHT22;9202;51.578;7.734;2022-07-06T10:09:54;18.20;99.90
18153;DHT22;9202;51.578;7.734;2022-07-06T10:12:00;18.20;99.90
18153;DHT22;9202;51.578;7.734;2022-07-06T10:14:09;18.20;99.90
18153;DHT22;9202;51.578;7.734;2022-07-06T10:16:15;18.20;99.90
18153;DHT22;9202;51.578;7.734;2022-07-06T10:18:20;18.20;99.90
18153;DHT22;9202;51.578;7.734;2022-07-06T10:20:29;18.30;99.90
18153;DHT22;9202;51.578;7.734;2022-07-06T10:22:35;18.10;99.90
18153;DHT22;9202;51.578;7.734;2022-07-06T10:24:41;18.30;99.90
18153;DHT22;9202;51.578;7.734;2022-07-06T10:26:51;18.50;99.90
18153;DHT22;9202;51.578;7.734;2022-07-06T10:29:06;18.60;99.90
18153;DHT22;9202;51.578;7.734;2022-07-06T10:31:12;18.70;99.90
18153;DHT22;9202;51.578;7.734;2022-07-06T10:33:17;18.80;99.90
18153;DHT22;9202;51.578;7.734;2022-07-06T10:35:25;18.70;99.90
18153;DHT22;9202;51.578;7.734;2022-07-06T10:37:30;18.70;99.90
18153;DHT22;9202;51.578;7.734;2022-07-06T10:39:37;18.80;99.90
18153;DHT22;9202;51.578;7.734;2022-07-06T10:42:00;19.10;99.90
18153;DHT22;9202;51.578;7.734;2022-07-06T10:44:16;19.40;99.90
18153;DHT22;9202;51.578;7.734;2022-07-06T10:46:20;19.50;99.90
18153;DHT22;9202;51.578;7.734;2022-07-06T10:48:24;19.60;99.90
18153;DHT22;9202;51.578;7.734;2022-07-06T10:52:53;19.50;99.90
18153;DHT22;9202;51.578;7.734;2022-07-06T10:57:16;19.50;99.90
18153;DHT22;9202;51.578;7.734;2022-07-06T10:59:23;19.60;99.90
18153;DHT22;9202;51.578;7.734;2022-07-06T11:01:29;19.70;99.90
18153;DHT22;9202;51.578;7.734;2022-07-06T11:03:39;19.70;99.90
18153;DHT22;9202;51.578;7.734;2022-07-06T11:05:45;19.60;99.90
18153;DHT22;9202;51.578;7.734;2022-07-06T11:10:09;19.30;99.90
18153;DHT22;9202;51.578;7.734;2022-07-06T11:12:16;19.20;99.90
18153;DHT22;9202;51.578;7.734;2022-07-06T11:14:21;19.10;99.90
18153;DHT22;9202;51.578;7.734;2022-07-06T11:16:28;19.10;99.90
18153;DHT22;9202;51.578;7.734;2022-07-06T11:21:20;19.20;99.90
18153;DHT22;9202;51.578;7.734;2022-07-06T11:23:25;19.20;99.90
18153;DHT22;9202;51.578;7.734;2022-07-06T11:25:29;19.20;99.90
18153;DHT22;9202;51.578;7.734;2022-07-06T11:27:35;19.30;99.90
18153;DHT22;9202;51.578;7.734;2022-07-06T11:29:39;19.40;99.90
18153;DHT22;9202;51.578;7.734;2022-07-06T11:31:44;19.60;99.90
18153;DHT22;9202;51.578;7.734;2022-07-06T11:36:14;20.10;99.90
18153;DHT22;9202;51.578;7.734;2022-07-06T11:40:44;20.90;99.90
18153;DHT22;9202;51.578;7.734;2022-07-06T11:45:11;21.20;99.90
18153;DHT22;9202;51.578;7.734;2022-07-06T11:49:30;21.20;99.90
18153;DHT22;9202;51.578;7.734;2022-07-06T11:51:36;20.70;99.90
18153;DHT22;9202;51.578;7.734;2022-07-06T11:56:04;20.10;99.90
18153;DHT22;9202;51.578;7.734;2022-07-06T11:58:11;19.70;99.90
18153;DHT22;9202;51.578;7.734;2022-07-06T12:00:20;19.60;99.90
18153;DHT22;9202;51.578;7.734;2022-07-06T12:02:25;19.50;99.90
18153;DHT22;9202;51.578;7.734;2022-07-06T12:04:29;19.50;99.90
18153;DHT22;9202;51.578;7.734;2022-07-06T12:06:33;19.50;99.90
18153;DHT22;9202;51.578;7.734;2022-07-06T12:08:43;19.60;99.90
18153;DHT22;9202;51.578;7.734;2022-07-06T12:10:47;19.70;99.90
18153;DHT22;9202;51.578;7.734;2022-07-06T12:12:51;19.80;99.90
18153;DHT22;9202;51.578;7.734;2022-07-06T12:17:15;19.80;99.90
18153;DHT22;9202;51.578;7.734;2022-07-06T12:21:47;20.00;99.90
18153;DHT22;9202;51.578;7.734;2022-07-06T12:23:52;19.90;99.90
18153;DHT22;9202;51.578;7.734;2022-07-06T12:28:23;20.20;99.90
18153;DHT22;9202;51.578;7.734;2022-07-06T12:32:42;20.50;99.90
18153;DHT22;9202;51.578;7.734;2022-07-06T12:39:24;20.60;99.90
18153;DHT22;9202;51.578;7.734;2022-07-06T12:43:44;20.90;99.90
18153;DHT22;9202;51.578;7.734;2022-07-06T12:45:48;20.80;99.90
18153;DHT22;9202;51.578;7.734;2022-07-06T12:50:15;21.20;99.90
18153;DHT22;9202;51.578;7.734;2022-07-06T12:52:19;20.80;99.90
18153;DHT22;9202;51.578;7.734;2022-07-06T13:01:18;20.80;99.90
18153;DHT22;9202;51.578;7.734;2022-07-06T13:03:22;20.90;99.90
18153;DHT22;9202;51.578;7.734;2022-07-06T13:07:46;21.30;99.90
18153;DHT22;9202;51.578;7.734;2022-07-06T13:09:50;21.50;99.90
18153;DHT22;9202;51.578;7.734;2022-07-06T13:11:54;21.50;99.90
18153;DHT22;9202;51.578;7.734;2022-07-06T13:16:16;21.40;99.90
18153;DHT22;9202;51.578;7.734;2022-07-06T13:18:20;21.10;99.90
18153;DHT22;9202;51.578;7.734;2022-07-06T13:20:25;21.30;99.90
18153;DHT22;9202;51.578;7.734;2022-07-06T13:22:28;21.30;99.90
18153;DHT22;9202;51.578;7.734;2022-07-06T13:26:47;21.70;99.90
18153;DHT22;9202;51.578;7.734;2022-07-06T13:28:51;21.90;99.90
18153;DHT22;9202;51.578;7.734;2022-07-06T13:30:54;21.90;99.90
18153;DHT22;9202;51.578;7.734;2022-07-06T13:32:58;21.80;99.80
18153;DHT22;9202;51.578;7.734;2022-07-06T13:35:01;21.60;99.80
18153;DHT22;9202;51.578;7.734;2022-07-06T13:37:05;21.50;99.90
18153;DHT22;9202;51.578;7.734;2022-07-06T13:39:09;21.50;99.90
18153;DHT22;9202;51.578;7.734;2022-07-06T13:41:13;21.60;99.90
18153;DHT22;9202;51.578;7.734;2022-07-06T13:45:45;21.50;99.00
18153;DHT22;9202;51.578;7.734;2022-07-06T13:47:49;21.50;99.90
18153;DHT22;9202;51.578;7.734;2022-07-06T13:52:09;21.60;99.90
18153;DHT22;9202;51.578;7.734;2022-07-06T13:54:12;21.50;99.80
18153;DHT22;9202;51.578;7.734;2022-07-06T13:58:34;21.90;99.50
18153;DHT22;9202;51.578;7.734;2022-07-06T14:00:38;22.10;99.90
18153;DHT22;9202;51.578;7.734;2022-07-06T14:02:42;22.30;99.90
18153;DHT22;9202;51.578;7.734;2022-07-06T14:07:02;22.50;99.10
18153;DHT22;9202;51.578;7.734;2022-07-06T14:09:05;22.60;99.90
18153;DHT22;9202;51.578;7.734;2022-07-06T14:11:09;22.80;99.90
18153;DHT22;9202;51.578;7.734;2022-07-06T14:13:13;22.80;99.80
18153;DHT22;9202;51.578;7.734;2022-07-06T14:17:35;22.50;99.30
18153;DHT22;9202;51.578;7.734;2022-07-06T14:19:39;22.30;98.30
18153;DHT22;9202;51.578;7.734;2022-07-06T14:21:42;22.00;99.90
18153;DHT22;9202;51.578;7.734;2022-07-06T14:23:49;22.00;99.20
18153;DHT22;9202;51.578;7.734;2022-07-06T14:25:53;22.00;99.90
18153;DHT22;9202;51.578;7.734;2022-07-06T14:27:57;21.90;99.90
18153;DHT22;9202;51.578;7.734;2022-07-06T14:30:01;21.80;99.90
18153;DHT22;9202;51.578;7.734;2022-07-06T14:32:06;21.90;99.90
18153;DHT22;9202;51.578;7.734;2022-07-06T14:34:10;22.00;99.70
18153;DHT22;9202;51.578;7.734;2022-07-06T14:36:13;22.00;99.90
18153;DHT22;9202;51.578;7.734;2022-07-06T14:40:36;22.00;99.70
18153;DHT22;9202;51.578;7.734;2022-07-06T14:42:39;22.00;99.90
18153;DHT22;9202;51.578;7.734;2022-07-06T14:44:43;21.90;99.90
18153;DHT22;9202;51.578;7.734;2022-07-06T14:46:46;21.90;98.70
18153;DHT22;9202;51.578;7.734;2022-07-06T14:51:05;21.70;99.20
18153;DHT22;9202;51.578;7.734;2022-07-06T14:53:09;21.70;99.00
18153;DHT22;9202;51.578;7.734;2022-07-06T14:55:13;21.80;99.20
18153;DHT22;9202;51.578;7.734;2022-07-06T14:57:17;21.70;98.90
18153;DHT22;9202;51.578;7.734;2022-07-06T14:59:21;21.60;99.80
18153;DHT22;9202;51.578;7.734;2022-07-06T15:01:26;21.50;99.30
18153;DHT22;9202;51.578;7.734;2022-07-06T15:03:30;21.60;99.40
18153;DHT22;9202;51.578;7.734;2022-07-06T15:05:41;21.60;98.60
18153;DHT22;9202;51.578;7.734;2022-07-06T15:07:49;21.50;99.60
18153;DHT22;9202;51.578;7.734;2022-07-06T15:12:13;21.30;98.20
18153;DHT22;9202;51.578;7.734;2022-07-06T15:16:32;21.10;98.40
18153;DHT22;9202;51.578;7.734;2022-07-06T15:18:36;21.00;99.20
18153;DHT22;9202;51.578;7.734;2022-07-06T15:20:40;21.00;99.90
18153;DHT22;9202;51.578;7.734;2022-07-06T15:22:43;21.10;99.90
18153;DHT22;9202;51.578;7.734;2022-07-06T15:24:47;21.10;99.20
18153;DHT22;9202;51.578;7.734;2022-07-06T15:26:50;21.10;99.00